createdAt,value
2023-01-29T00:00:50.988Z,99701.00
2023-01-29T00:05:55.344Z,99716.81
2023-01-29T00:11:01.915Z,99714.22
2023-01-29T00:16:05.075Z,99707.31
2023-01-29T00:21:11.551Z,99704.78
2023-01-29T00:26:14.969Z,99688.38
2023-01-29T00:31:22.426Z,99686.78
2023-01-29T00:36:27.828Z,99686.00
2023-01-29T00:41:49.914Z,99676.53
2023-01-29T00:46:52.731Z,99670.66
2023-01-29T00:52:14.383Z,99668.16
2023-01-29T00:57:17.246Z,99660.47
2023-01-29T01:02:38.021Z,99650.94
2023-01-29T01:07:42.319Z,99644.25
2023-01-29T01:12:45.070Z,99641.94
2023-01-29T01:17:48.800Z,99638.50
2023-01-29T01:22:54.427Z,99619.50
2023-01-29T01:28:03.422Z,99625.78
2023-01-29T01:33:06.301Z,99624.09
2023-01-29T01:38:10.412Z,99632.03
2023-01-29T01:43:13.223Z,99629.56
2023-01-29T01:48:20.794Z,99635.66
2023-01-29T01:53:28.988Z,99638.34
2023-01-29T01:58:35.823Z,99634.16
2023-01-29T02:04:08.920Z,99629.91
2023-01-29T02:09:37.076Z,99636.91
2023-01-29T02:14:41.807Z,99656.94
2023-01-29T02:19:51.495Z,99653.50
2023-01-29T02:25:31.848Z,99663.88
2023-01-29T02:30:40.775Z,99654.31
2023-01-29T02:35:47.717Z,99658.69
2023-01-29T02:40:56.524Z,99654.41
2023-01-29T02:46:12.403Z,99640.59
2023-01-29T02:51:21.000Z,99632.03
2023-01-29T02:56:29.090Z,99624.22
2023-01-29T03:01:38.182Z,99620.81
2023-01-29T03:06:46.539Z,99624.34
2023-01-29T03:11:52.831Z,99628.91
2023-01-29T03:17:00.396Z,99623.66
2023-01-29T03:22:08.374Z,99621.13
2023-01-29T03:27:32.486Z,99631.66
2023-01-29T03:32:38.621Z,99636.81
2023-01-29T03:37:45.557Z,99641.22
2023-01-29T03:43:00.717Z,99639.56
2023-01-29T03:48:10.630Z,99643.13
2023-01-29T03:53:22.440Z,99653.53
2023-01-29T03:58:35.764Z,99641.41
2023-01-29T04:03:43.172Z,99638.84
2023-01-29T04:08:53.416Z,99646.69
2023-01-29T04:13:58.181Z,99654.53
2023-01-29T04:19:02.723Z,99661.47
2023-01-29T04:24:13.358Z,99651.91
2023-01-29T04:29:30.009Z,99639.78
2023-01-29T04:34:45.375Z,99633.72
2023-01-29T04:39:55.303Z,99618.16
2023-01-29T04:45:04.705Z,99613.03
2023-01-29T04:50:17.022Z,99595.69
2023-01-29T04:55:31.231Z,99597.47
2023-01-29T05:00:39.557Z,99607.94
2023-01-29T05:05:46.442Z,99608.78
2023-01-29T05:10:51.157Z,99607.94
2023-01-29T05:16:00.106Z,99625.38
2023-01-29T05:21:08.370Z,99635.66
2023-01-29T05:26:31.749Z,99632.13
2023-01-29T05:31:34.596Z,99625.94
2023-01-29T05:36:39.796Z,99625.88
2023-01-29T05:41:42.791Z,99629.28
2023-01-29T05:46:46.203Z,99627.59
2023-01-29T05:51:50.399Z,99631.00
2023-01-29T05:56:53.226Z,99623.91
2023-01-29T06:01:56.057Z,99614.22
2023-01-29T06:07:01.273Z,99610.66
2023-01-29T06:12:06.188Z,99595.88
2023-01-29T06:17:09.074Z,99582.97
2023-01-29T06:22:13.267Z,99575.16
2023-01-29T06:27:16.024Z,99574.16
2023-01-29T06:32:18.956Z,99580.16
2023-01-29T06:37:23.215Z,99595.78
2023-01-29T06:42:28.013Z,99591.34
2023-01-29T06:47:31.031Z,99612.97
2023-01-29T06:52:35.149Z,99604.19
2023-01-29T06:57:37.844Z,99611.03
2023-01-29T07:02:40.667Z,99614.41
2023-01-29T07:07:45.196Z,99623.75
2023-01-29T07:12:48.003Z,99635.13
2023-01-29T07:17:58.632Z,99631.50
2023-01-29T07:23:02.707Z,99627.91
2023-01-29T07:28:06.007Z,99634.00
2023-01-29T07:33:10.872Z,99639.06
2023-01-29T07:38:15.003Z,99637.16
2023-01-29T07:43:17.807Z,99632.72
2023-01-29T07:48:20.718Z,99634.28
2023-01-29T07:53:24.877Z,99638.41
2023-01-29T07:58:27.651Z,99650.50
2023-01-29T08:03:30.458Z,99654.00
2023-01-29T08:08:34.659Z,99645.00
2023-01-29T08:13:37.374Z,99652.63
2023-01-29T08:18:42.396Z,99644.53
2023-01-29T08:23:46.711Z,99649.47
2023-01-29T08:28:49.470Z,99632.81
2023-01-29T08:33:52.215Z,99650.03
2023-01-29T08:38:56.399Z,99646.41
2023-01-29T08:44:00.341Z,99647.09
2023-01-29T08:49:03.057Z,99636.72
2023-01-29T08:54:07.400Z,99634.88
2023-01-29T08:59:10.775Z,99654.97
2023-01-29T09:04:13.453Z,99655.09
2023-01-29T09:09:18.403Z,99655.28
2023-01-29T09:14:21.274Z,99653.91
2023-01-29T09:19:24.106Z,99664.41
2023-01-29T09:24:28.251Z,99677.28
2023-01-29T09:29:31.108Z,99692.78
2023-01-29T09:34:33.930Z,99700.75
2023-01-29T09:39:38.192Z,99689.88
2023-01-29T09:45:00.760Z,99690.53
2023-01-29T09:50:08.427Z,99688.75
2023-01-29T09:55:20.731Z,99667.47
2023-01-29T10:00:26.496Z,99641.22
2023-01-29T10:05:40.225Z,99637.00
2023-01-29T10:10:51.391Z,99624.38
2023-01-29T10:16:16.271Z,99614.63
2023-01-29T10:21:42.650Z,99610.94
2023-01-29T10:26:46.897Z,99602.19
2023-01-29T10:31:55.039Z,99608.88
2023-01-29T10:36:57.932Z,99584.72
2023-01-29T10:42:16.109Z,99595.09
2023-01-29T10:47:35.638Z,99574.97
2023-01-29T10:52:51.006Z,99569.41
2023-01-29T10:58:03.183Z,99559.94
2023-01-29T11:03:26.862Z,99554.75
2023-01-29T11:08:37.431Z,99543.53
2023-01-29T11:13:46.569Z,99539.13
2023-01-29T11:18:51.574Z,99532.63
2023-01-29T11:24:07.924Z,99527.53
2023-01-29T11:29:35.465Z,99508.09
2023-01-29T11:34:57.560Z,99513.34
2023-01-29T11:40:00.450Z,99501.81
2023-01-29T11:45:25.754Z,99496.59
2023-01-29T11:50:31.793Z,99492.53
2023-01-29T11:55:49.913Z,99492.50
2023-01-29T12:00:55.960Z,99464.72
2023-01-29T12:06:01.842Z,99461.84
2023-01-29T12:11:13.916Z,99449.03
2023-01-29T12:16:28.942Z,99444.22
2023-01-29T12:21:37.898Z,99432.22
2023-01-29T12:26:48.290Z,99408.38
2023-01-29T12:32:00.306Z,99395.34
2023-01-29T12:37:12.691Z,99397.41
2023-01-29T12:42:20.167Z,99390.38
2023-01-29T12:47:31.392Z,99383.09
2023-01-29T12:52:41.185Z,99373.94
2023-01-29T12:57:48.228Z,99361.97
2023-01-29T13:02:57.983Z,99364.50
2023-01-29T13:08:07.248Z,99359.25
2023-01-29T13:13:20.356Z,99352.50
2023-01-29T13:18:41.608Z,99359.28
2023-01-29T13:23:48.066Z,99362.91
2023-01-29T13:28:52.994Z,99364.13
2023-01-29T13:34:04.976Z,99345.78
2023-01-29T13:39:09.903Z,99349.72
2023-01-29T13:44:23.391Z,99346.78
2023-01-29T13:49:32.783Z,99345.81
2023-01-29T13:54:35.954Z,99341.22
2023-01-29T13:59:54.569Z,99329.00
2023-01-29T14:05:31.269Z,99322.47
2023-01-29T14:10:37.403Z,99312.66
2023-01-29T14:15:40.485Z,99308.94
2023-01-29T14:20:53.998Z,99298.75
2023-01-29T14:26:00.615Z,99298.75
2023-01-29T14:31:04.607Z,99301.50
2023-01-29T14:36:12.025Z,99293.03
2023-01-29T14:41:24.556Z,99289.41
2023-01-29T14:46:45.300Z,99275.38
2023-01-29T14:51:48.359Z,99259.47
2023-01-29T14:57:01.515Z,99253.94
2023-01-29T15:02:15.357Z,99251.09
2023-01-29T15:07:28.062Z,99264.66
2023-01-29T15:12:38.208Z,99252.19
2023-01-29T15:17:47.015Z,99246.75
2023-01-29T15:22:49.738Z,99235.78
2023-01-29T15:27:55.839Z,99238.19
2023-01-29T15:32:59.162Z,99245.31
2023-01-29T15:38:04.866Z,99243.94
2023-01-29T15:43:22.423Z,99253.06
2023-01-29T15:48:32.962Z,99253.53
2023-01-29T15:53:39.259Z,99254.00
2023-01-29T15:58:44.034Z,99260.41
2023-01-29T16:03:50.434Z,99259.94
2023-01-29T16:08:55.331Z,99255.91
2023-01-29T16:14:00.211Z,99271.16
2023-01-29T16:19:03.000Z,99268.03
2023-01-29T16:24:09.837Z,99277.81
2023-01-29T16:29:16.956Z,99271.19
2023-01-29T16:34:26.940Z,99281.91
2023-01-29T16:39:33.684Z,99272.63
2023-01-29T16:44:40.274Z,99281.69
2023-01-29T16:49:50.678Z,99278.75
2023-01-29T16:54:54.537Z,99287.78
2023-01-29T17:00:02.738Z,99285.28
2023-01-29T17:05:09.620Z,99301.44
2023-01-29T17:10:17.868Z,99310.84
2023-01-29T17:15:46.530Z,99308.13
2023-01-29T17:20:50.341Z,99299.53
2023-01-29T17:25:53.172Z,99289.00
2023-01-29T17:31:06.340Z,99281.25
2023-01-29T17:36:12.512Z,99271.75
2023-01-29T17:41:22.311Z,99265.69
2023-01-29T17:46:27.398Z,99266.78
2023-01-29T17:51:30.114Z,99259.22
2023-01-29T17:56:32.816Z,99263.63
2023-01-29T18:01:36.873Z,99259.22
2023-01-29T18:06:41.096Z,99245.25
2023-01-29T18:11:44.209Z,99239.91
2023-01-29T18:16:48.491Z,99236.31
2023-01-29T18:21:52.391Z,99232.69
2023-01-29T18:26:55.215Z,99238.72
2023-01-29T18:31:59.574Z,99229.88
2023-01-29T18:37:02.458Z,99226.56
2023-01-29T18:42:05.544Z,99215.09
2023-01-29T18:47:09.859Z,99201.22
2023-01-29T18:52:12.723Z,99193.50
2023-01-29T18:58:28.042Z,99187.44
2023-01-29T19:02:39.885Z,99181.38
2023-01-29T19:07:42.662Z,99196.19
2023-01-29T19:12:45.660Z,99194.31
2023-01-29T19:17:49.940Z,99194.31
2023-01-29T19:22:52.746Z,99194.13
2023-01-29T19:27:55.515Z,99192.41
2023-01-29T19:32:59.743Z,99183.66
2023-01-29T19:38:02.509Z,99168.00
2023-01-29T19:43:05.889Z,99152.16
2023-01-29T19:48:10.877Z,99159.97
2023-01-29T19:53:14.078Z,99149.25
2023-01-29T19:58:16.844Z,99139.84
2023-01-29T20:03:21.046Z,99144.22
2023-01-29T20:08:23.900Z,99135.16
2023-01-29T20:13:26.820Z,99133.38
2023-01-29T20:18:30.936Z,99138.59
2023-01-29T20:23:38.165Z,99129.75
2023-01-29T20:28:41.420Z,99121.91
2023-01-29T20:33:45.878Z,99121.72
2023-01-29T20:38:48.645Z,99111.31
2023-01-29T20:43:51.474Z,99113.72
2023-01-29T20:48:56.590Z,99106.88
2023-01-29T20:53:59.890Z,99097.81
2023-01-29T20:59:03.251Z,99089.16
2023-01-29T21:04:07.393Z,99075.94
2023-01-29T21:09:11.149Z,99062.72
2023-01-29T21:14:14.193Z,99043.34
2023-01-29T21:19:18.480Z,99034.72
2023-01-29T21:24:21.351Z,99011.00
2023-01-29T21:29:24.079Z,98995.28
2023-01-29T21:34:28.307Z,98979.56
2023-01-29T21:39:31.095Z,98987.25
2023-01-29T21:44:34.515Z,98980.16
2023-01-29T21:49:40.001Z,98975.81
2023-01-29T21:54:46.902Z,98974.78
2023-01-29T21:59:52.714Z,98966.81
2023-01-29T22:05:16.394Z,98974.66
2023-01-29T22:10:21.788Z,98959.84
2023-01-29T22:15:24.859Z,98952.72
2023-01-29T22:20:31.051Z,98948.34
2023-01-29T22:25:34.084Z,98950.97
2023-01-29T22:30:36.915Z,98947.44
2023-01-29T22:35:41.073Z,98931.66
2023-01-29T22:40:50.414Z,98929.03
2023-01-29T22:45:53.129Z,98926.28
2023-01-29T22:51:10.435Z,98926.22
2023-01-29T22:56:13.335Z,98932.28
2023-01-29T23:01:19.363Z,98927.00
2023-01-29T23:06:23.861Z,98924.28
2023-01-29T23:11:26.607Z,98926.72
2023-01-29T23:16:29.570Z,98916.34
2023-01-29T23:21:33.647Z,98932.84
2023-01-29T23:26:54.041Z,98925.63
2023-01-29T23:31:56.792Z,98920.44
2023-01-29T23:37:00.979Z,98911.59
2023-01-29T23:42:03.716Z,98924.59
2023-01-29T23:47:06.606Z,98900.09
2023-01-29T23:52:10.732Z,98888.81
2023-01-29T23:57:13.474Z,98870.47
